createdAt,value
2019-04-28T00:01:05.158Z,0
2019-04-28T00:04:35.117Z,0
2019-04-28T00:08:05.045Z,0
2019-04-28T00:11:34.986Z,0
2019-04-28T00:15:04.978Z,0
2019-04-28T00:18:34.916Z,0
2019-04-28T00:22:05.897Z,0
2019-04-28T00:25:35.830Z,0
2019-04-28T00:29:05.770Z,0
2019-04-28T00:32:35.708Z,0
2019-04-28T00:36:05.641Z,0
2019-04-28T00:39:35.569Z,0
2019-04-28T00:43:05.532Z,0
2019-04-28T00:46:35.459Z,0
2019-04-28T00:50:05.401Z,0
2019-04-28T00:53:35.378Z,0
2019-04-28T00:57:05.304Z,0
2019-04-28T01:00:35.251Z,0
2019-04-28T01:04:06.173Z,0
2019-04-28T01:07:36.121Z,0
2019-04-28T01:11:06.059Z,0
2019-04-28T01:14:36.023Z,0
2019-04-28T01:18:06.369Z,0
2019-04-28T01:21:36.294Z,0
2019-04-28T01:25:06.232Z,0
2019-04-28T01:28:36.169Z,0
2019-04-28T01:32:06.091Z,0
2019-04-28T01:35:36.059Z,0
2019-04-28T01:39:05.998Z,0
2019-04-28T01:42:35.918Z,0
2019-04-28T01:46:05.855Z,0
2019-04-28T01:49:35.793Z,0
2019-04-28T01:53:05.773Z,0
2019-04-28T01:56:35.707Z,0
2019-04-28T02:00:19.799Z,0
2019-04-28T02:03:40.601Z,0
2019-04-28T02:07:11.478Z,0
2019-04-28T02:10:42.409Z,0
2019-04-28T02:14:12.349Z,0
2019-04-28T02:17:43.264Z,0
2019-04-28T02:21:14.194Z,0
2019-04-28T02:24:44.257Z,0
2019-04-28T02:28:15.181Z,0
2019-04-28T02:31:45.177Z,0
2019-04-28T02:35:15.114Z,0
2019-04-28T02:38:46.045Z,0
2019-04-28T02:42:15.994Z,0
2019-04-28T02:45:45.930Z,0
2019-04-28T02:49:15.841Z,0
2019-04-28T02:52:45.826Z,0
2019-04-28T02:56:16.767Z,0
2019-04-28T02:59:50.520Z,0
2019-04-28T03:03:20.820Z,1
2019-04-28T03:06:51.777Z,1
2019-04-28T03:10:23.461Z,2
2019-04-28T03:13:54.404Z,4
2019-04-28T03:17:24.351Z,7
2019-04-28T03:20:54.287Z,13
2019-04-28T03:24:24.243Z,20
2019-04-28T03:27:54.167Z,31
2019-04-28T03:31:50.580Z,44
2019-04-28T03:35:02.815Z,61
2019-04-28T03:38:32.245Z,80
2019-04-28T03:42:03.143Z,101
2019-04-28T03:45:34.105Z,125
2019-04-28T03:49:04.041Z,158
2019-04-28T03:52:34.994Z,196
2019-04-28T03:56:04.937Z,235
2019-04-28T03:59:35.859Z,277
2019-04-28T04:03:05.828Z,320
2019-04-28T04:06:35.768Z,373
2019-04-28T04:10:05.717Z,451
2019-04-28T04:13:35.640Z,548
2019-04-28T04:17:06.570Z,694
2019-04-28T04:20:36.492Z,793
2019-04-28T04:24:06.452Z,860
2019-04-28T04:27:36.385Z,910
2019-04-28T04:31:06.353Z,1011
2019-04-28T04:34:36.271Z,1208
2019-04-28T04:38:06.228Z,1455
2019-04-28T04:41:36.162Z,1656
2019-04-28T04:45:06.084Z,1785
2019-04-28T04:48:36.007Z,1924
2019-04-28T04:52:05.945Z,2116
2019-04-28T04:55:35.887Z,2184
2019-04-28T04:59:05.828Z,2164
2019-04-28T05:02:35.776Z,2224
2019-04-28T05:06:06.743Z,2246
2019-04-28T05:09:36.678Z,2206
2019-04-28T05:13:06.668Z,2222
2019-04-28T05:16:36.613Z,2144
2019-04-28T05:20:06.544Z,2147
2019-04-28T05:23:37.480Z,2233
2019-04-28T05:27:07.411Z,2241
2019-04-28T05:30:42.914Z,2475
2019-04-28T05:34:13.246Z,2730
2019-04-28T05:37:44.195Z,2638
2019-04-28T05:41:14.104Z,2891
2019-04-28T05:44:44.064Z,2921
2019-04-28T05:48:14.009Z,2683
2019-04-28T05:51:43.934Z,2790
2019-04-28T05:55:13.875Z,2761
2019-04-28T05:58:43.831Z,2943
2019-04-28T06:02:14.773Z,3085
2019-04-28T06:05:44.708Z,3357
2019-04-28T06:09:14.655Z,3660
2019-04-28T06:12:44.610Z,4097
2019-04-28T06:16:14.550Z,4048
2019-04-28T06:19:44.564Z,3445
2019-04-28T06:23:14.495Z,3918
2019-04-28T06:26:44.445Z,3335
2019-04-28T06:30:14.381Z,3665
2019-04-28T06:33:45.322Z,3347
2019-04-28T06:37:15.270Z,3560
2019-04-28T06:40:45.210Z,4332
2019-04-28T06:44:15.290Z,4141
2019-04-28T06:47:45.232Z,5087
2019-04-28T06:51:15.183Z,6079
2019-04-28T06:54:45.177Z,6175
2019-04-28T06:58:15.109Z,8133
2019-04-28T07:01:46.180Z,7013
2019-04-28T07:05:16.092Z,7097
2019-04-28T07:08:46.044Z,8424
2019-04-28T07:12:16.093Z,7443
2019-04-28T07:15:46.052Z,6845
2019-04-28T07:19:15.978Z,6499
2019-04-28T07:22:45.916Z,7183
2019-04-28T07:26:16.853Z,6440
2019-04-28T07:29:46.892Z,6598
2019-04-28T07:33:17.050Z,6539
2019-04-28T07:36:47.069Z,5328
2019-04-28T07:40:17.075Z,4951
2019-04-28T07:43:47.046Z,4205
2019-04-28T07:47:17.113Z,4471
2019-04-28T07:50:47.216Z,5083
2019-04-28T07:54:17.257Z,6295
2019-04-28T07:57:47.375Z,6372
2019-04-28T08:01:17.427Z,7023
2019-04-28T08:04:47.408Z,7173
2019-04-28T08:08:17.455Z,6824
2019-04-28T08:11:47.558Z,6168
2019-04-28T08:15:17.678Z,6145
2019-04-28T08:18:47.701Z,7224
2019-04-28T08:22:17.784Z,7753
2019-04-28T08:25:47.837Z,8262
2019-04-28T08:29:17.870Z,7912
2019-04-28T08:32:48.833Z,7605
2019-04-28T08:36:18.779Z,10167
2019-04-28T08:39:49.091Z,12679
2019-04-28T08:43:20.051Z,9863
2019-04-28T08:46:50.009Z,6856
2019-04-28T08:50:19.933Z,8140
2019-04-28T08:53:49.880Z,11176
2019-04-28T08:57:19.829Z,10478
2019-04-28T09:00:49.758Z,8848
2019-04-28T09:04:19.696Z,9167
2019-04-28T09:07:50.629Z,9950
2019-04-28T09:11:20.684Z,10644
2019-04-28T09:14:51.115Z,10980
2019-04-28T09:18:21.086Z,10154
2019-04-28T09:21:51.019Z,9741
2019-04-28T09:25:20.959Z,10738
2019-04-28T09:28:50.909Z,11885
2019-04-28T09:32:20.828Z,11265
2019-04-28T09:35:50.772Z,11603
2019-04-28T09:39:23.325Z,12184
2019-04-28T09:42:51.639Z,11717
2019-04-28T09:46:21.587Z,18264
2019-04-28T09:49:51.542Z,9319
2019-04-28T09:53:21.521Z,8448
2019-04-28T09:56:56.656Z,9990
2019-04-28T10:00:25.509Z,11885
2019-04-28T10:03:59.197Z,17267
2019-04-28T10:07:30.637Z,41880
2019-04-28T10:11:00.843Z,60024
2019-04-28T10:14:31.133Z,30744
2019-04-28T10:18:01.395Z,45480
2019-04-28T10:21:31.565Z,7863
2019-04-28T10:25:01.670Z,8858
2019-04-28T10:28:31.737Z,9760
2019-04-28T10:32:02.712Z,10592
2019-04-28T10:35:32.769Z,9329
2019-04-28T10:39:02.767Z,8000
2019-04-28T10:42:32.695Z,16227
2019-04-28T10:46:02.650Z,13000
2019-04-28T10:49:32.598Z,15768
2019-04-28T10:53:02.610Z,19928
2019-04-28T10:56:32.656Z,20440
2019-04-28T11:00:02.800Z,11339
2019-04-28T11:03:32.758Z,8541
2019-04-28T11:07:02.693Z,8305
2019-04-28T11:10:32.678Z,8304
2019-04-28T11:14:02.639Z,7831
2019-04-28T11:17:32.572Z,10258
2019-04-28T11:21:02.526Z,11300
2019-04-28T11:24:32.470Z,10897
2019-04-28T11:28:02.512Z,7775
2019-04-28T11:31:33.478Z,6553
2019-04-28T11:35:03.457Z,7135
2019-04-28T11:38:33.412Z,8915
2019-04-28T11:42:03.373Z,9386
2019-04-28T11:45:33.332Z,8975
2019-04-28T11:49:03.311Z,11224
2019-04-28T11:52:33.264Z,15418
2019-04-28T11:56:03.221Z,15788
2019-04-28T11:59:33.242Z,9856
2019-04-28T12:03:03.190Z,7030
2019-04-28T12:06:33.134Z,6338
2019-04-28T12:10:06.604Z,4566
2019-04-28T12:13:36.100Z,4189
2019-04-28T12:17:06.062Z,3361
2019-04-28T12:20:36.006Z,3186
2019-04-28T12:24:05.938Z,2231
2019-04-28T12:27:35.888Z,1302
2019-04-28T12:31:05.838Z,1021
2019-04-28T12:34:35.793Z,1000
2019-04-28T12:38:05.746Z,889
2019-04-28T12:41:35.741Z,819
2019-04-28T12:45:05.712Z,1269
2019-04-28T12:48:35.788Z,1455
2019-04-28T12:52:05.821Z,1334
2019-04-28T12:55:35.933Z,1423
2019-04-28T12:59:07.099Z,1041
2019-04-28T13:02:37.126Z,1129
2019-04-28T13:06:08.058Z,1284
2019-04-28T13:09:38.080Z,1249
2019-04-28T13:13:08.125Z,1844
2019-04-28T13:16:38.141Z,2404
2019-04-28T13:20:08.736Z,3077
2019-04-28T13:23:38.691Z,2839
2019-04-28T13:27:10.286Z,2667
2019-04-28T13:30:39.681Z,2436
2019-04-28T13:34:09.617Z,2395
2019-04-28T13:37:39.585Z,2453
2019-04-28T13:41:09.525Z,2776
2019-04-28T13:44:39.512Z,3347
2019-04-28T13:48:09.484Z,4708
2019-04-28T13:51:39.499Z,7482
2019-04-28T13:55:09.552Z,9484
2019-04-28T13:58:39.554Z,9766
2019-04-28T14:02:09.516Z,10452
2019-04-28T14:05:39.671Z,11990
2019-04-28T14:09:09.701Z,14688
2019-04-28T14:12:39.624Z,13630
2019-04-28T14:16:09.630Z,17347
2019-04-28T14:19:39.526Z,17623
2019-04-28T14:23:09.457Z,15623
2019-04-28T14:26:41.393Z,17412
2019-04-28T14:30:11.378Z,14364
2019-04-28T14:33:41.816Z,11347
2019-04-28T14:37:13.641Z,10439
2019-04-28T14:40:44.005Z,11383
2019-04-28T14:44:17.461Z,11741
2019-04-28T14:47:45.781Z,11234
2019-04-28T14:51:16.760Z,8577
2019-04-28T14:54:46.776Z,7266
2019-04-28T14:58:16.825Z,7262
2019-04-28T15:01:46.794Z,7808
2019-04-28T15:05:16.747Z,7428
2019-04-28T15:08:46.677Z,10024
2019-04-28T15:12:17.624Z,11410
2019-04-28T15:15:47.713Z,9446
2019-04-28T15:19:17.512Z,10962
2019-04-28T15:22:47.446Z,14489
2019-04-28T15:26:17.409Z,19968
2019-04-28T15:29:50.181Z,10677
2019-04-28T15:33:20.559Z,11247
2019-04-28T15:36:50.840Z,9385
2019-04-28T15:40:21.384Z,9151
2019-04-28T15:43:51.623Z,8855
2019-04-28T15:47:22.040Z,7211
2019-04-28T15:50:52.416Z,6184
2019-04-28T15:54:22.725Z,5875
2019-04-28T15:57:53.081Z,5995
2019-04-28T16:01:23.283Z,6010
2019-04-28T16:04:53.335Z,5684
2019-04-28T16:08:23.332Z,5634
2019-04-28T16:11:53.426Z,5270
2019-04-28T16:15:24.349Z,4778
2019-04-28T16:18:54.474Z,4517
2019-04-28T16:22:24.363Z,4399
2019-04-28T16:25:54.400Z,4482
2019-04-28T16:29:25.334Z,4058
2019-04-28T16:32:56.251Z,4067
2019-04-28T16:36:26.366Z,3920
2019-04-28T16:39:56.301Z,3846
2019-04-28T16:43:26.252Z,3227
2019-04-28T16:46:56.223Z,2785
2019-04-28T16:50:26.180Z,3055
2019-04-28T16:53:56.131Z,2823
2019-04-28T16:57:26.093Z,2687
2019-04-28T17:00:57.033Z,2516
2019-04-28T17:04:27.142Z,2062
2019-04-28T17:07:57.587Z,1870
2019-04-28T17:11:27.687Z,1337
2019-04-28T17:14:57.657Z,1287
2019-04-28T17:18:27.616Z,992
2019-04-28T17:21:57.786Z,1117
2019-04-28T17:25:28.173Z,938
2019-04-28T17:28:58.552Z,951
2019-04-28T17:32:28.636Z,1127
2019-04-28T17:35:58.947Z,1055
2019-04-28T17:39:29.875Z,900
2019-04-28T17:43:00.263Z,902
2019-04-28T17:46:30.395Z,915
2019-04-28T17:50:00.365Z,754
2019-04-28T17:53:30.329Z,574
2019-04-28T17:57:00.266Z,548
2019-04-28T18:00:30.243Z,475
2019-04-28T18:04:00.198Z,377
2019-04-28T18:07:30.146Z,284
2019-04-28T18:11:00.107Z,260
2019-04-28T18:14:30.059Z,224
2019-04-28T18:18:00.036Z,204
2019-04-28T18:21:30.017Z,183
2019-04-28T18:24:59.988Z,129
2019-04-28T18:28:29.968Z,102
2019-04-28T18:32:01.043Z,86
2019-04-28T18:35:31.075Z,67
2019-04-28T18:39:01.249Z,48
2019-04-28T18:42:31.348Z,35
2019-04-28T18:46:01.437Z,25
2019-04-28T18:49:31.503Z,18
2019-04-28T18:53:01.937Z,12
2019-04-28T18:56:31.891Z,7
2019-04-28T19:00:01.963Z,4
2019-04-28T19:03:31.897Z,3
2019-04-28T19:07:05.621Z,1
2019-04-28T19:10:35.845Z,1
2019-04-28T19:14:05.806Z,1
2019-04-28T19:17:35.784Z,0
2019-04-28T19:21:05.825Z,0
2019-04-28T19:24:35.776Z,0
2019-04-28T19:28:06.841Z,0
2019-04-28T19:31:36.903Z,0
2019-04-28T19:35:07.111Z,0
2019-04-28T19:38:37.229Z,0
2019-04-28T19:42:07.346Z,0
2019-04-28T19:45:37.460Z,0
2019-04-28T19:49:07.516Z,0
2019-04-28T19:52:39.895Z,0
2019-04-28T19:56:09.744Z,0
2019-04-28T19:59:39.833Z,0
2019-04-28T20:03:09.832Z,0
2019-04-28T20:06:39.984Z,0
2019-04-28T20:10:09.993Z,0
2019-04-28T20:13:39.957Z,0
2019-04-28T20:17:09.953Z,0
2019-04-28T20:20:40.031Z,0
2019-04-28T20:24:09.976Z,0
2019-04-28T20:27:39.941Z,0
2019-04-28T20:31:10.875Z,0
2019-04-28T20:34:41.212Z,0
2019-04-28T20:38:11.306Z,0
2019-04-28T20:41:41.365Z,0
2019-04-28T20:45:11.346Z,0
2019-04-28T20:48:41.329Z,0
2019-04-28T20:52:11.856Z,0
2019-04-28T20:55:41.930Z,0
2019-04-28T20:59:11.947Z,0
2019-04-28T21:02:41.964Z,0
2019-04-28T21:06:11.962Z,0
2019-04-28T21:09:41.942Z,0
2019-04-28T21:13:11.899Z,0
2019-04-28T21:16:41.851Z,0
2019-04-28T21:20:11.780Z,0
2019-04-28T21:23:41.747Z,0
2019-04-28T21:27:11.720Z,0
2019-04-28T21:30:41.683Z,0
2019-04-28T21:34:11.627Z,0
2019-04-28T21:37:41.589Z,0
2019-04-28T21:41:12.573Z,0
2019-04-28T21:44:42.455Z,0
2019-04-28T21:48:12.395Z,0
2019-04-28T21:51:42.340Z,0
2019-04-28T21:55:12.332Z,0
2019-04-28T21:58:42.198Z,0
